Time;durP1;ratioP1;P1;durP2;ratioP2;P2;SDS_P1;SDS_P2;PMS_P1;PMS_P2;Temp;Humidity;BMP_temperature;BMP_pressure;BME280_temperature;BME280_humidity;BME280_pressure;Samples;Min_cycle;Max_cycle;Signal;HPM_P1;HPM_P2
2022/03/17 00:00:15;;;;;;;19.38;17.30;;;;;;;10.21;72.96;101751.56;6529035;22;20014;-75
2022/03/17 00:02:47;;;;;;;20.77;17.17;;;;;;;10.19;73.19;101769.78;6529512;22;20003;-76
2022/03/17 00:05:18;;;;;;;21.73;17.60;;;;;;;10.19;73.45;101766.31;6529296;22;20010;-78
2022/03/17 00:07:50;;;;;;;19.57;17.57;;;;;;;10.18;73.44;101773.25;6529410;22;20091;-74
2022/03/17 00:10:22;;;;;;;19.83;16.90;;;;;;;10.16;73.32;101764.56;6529079;22;20223;-73
2022/03/17 00:12:53;;;;;;;21.23;18.02;;;;;;;10.14;73.59;101763.69;6530133;22;20290;-72
2022/03/17 00:15:25;;;;;;;21.50;18.07;;;;;;;10.15;73.57;101765.41;6530707;22;20062;-76
2022/03/17 00:17:57;;;;;;;20.43;18.23;;;;;;;10.11;73.75;101755.88;6531290;22;20011;-74
2022/03/17 00:20:28;;;;;;;22.95;17.08;;;;;;;10.08;74.02;101757.56;6531141;22;20008;-74
2022/03/17 00:23:00;;;;;;;20.83;17.20;;;;;;;10.09;74.28;101748.91;6531453;22;20029;-72
2022/03/17 00:25:32;;;;;;;18.87;16.83;;;;;;;10.03;74.37;101761.03;6531085;22;20069;-75
2022/03/17 00:28:04;;;;;;;22.25;18.20;;;;;;;10.02;74.61;101751.47;6531147;22;20050;-74
2022/03/17 00:30:35;;;;;;;20.53;17.73;;;;;;;9.97;74.75;101744.50;6530841;22;20004;-74
2022/03/17 00:33:06;;;;;;;20.93;18.73;;;;;;;9.94;74.77;101760.13;6530799;22;20088;-75
2022/03/17 00:35:44;;;;;;;22.07;19.70;;;;;;;9.91;75.09;101749.69;6530812;22;20550;-75
2022/03/17 00:38:17;;;;;;;22.70;18.98;;;;;;;9.88;75.26;101760.94;6530683;22;20082;-79
2022/03/17 00:40:49;;;;;;;21.85;17.27;;;;;;;9.84;75.35;101752.25;6530981;22;20094;-75
2022/03/17 00:43:22;;;;;;;23.53;18.93;;;;;;;9.82;75.70;101753.09;6531016;22;20008;-74
2022/03/17 00:45:54;;;;;;;20.63;17.65;;;;;;;9.82;75.84;101763.50;6530790;22;20011;-75
2022/03/17 00:48:25;;;;;;;20.90;18.67;;;;;;;9.80;76.00;101768.69;6530779;22;20008;-75
2022/03/17 00:50:58;;;;;;;21.90;19.60;;;;;;;9.77;76.09;101760.91;6530982;22;20057;-75
2022/03/17 00:53:29;;;;;;;24.90;19.45;;;;;;;9.78;76.43;101765.22;6530572;22;20078;-73
2022/03/17 00:56:00;;;;;;;21.87;17.13;;;;;;;9.79;76.18;101755.69;6530988;22;20381;-74
2022/03/17 00:58:32;;;;;;;22.60;18.23;;;;;;;9.79;76.13;101766.97;6530686;22;20078;-74
2022/03/17 01:01:03;;;;;;;23.07;18.50;;;;;;;9.78;76.51;101759.16;6530313;22;20366;-78
2022/03/17 01:03:34;;;;;;;23.40;18.77;;;;;;;9.74;76.97;101768.69;6530591;22;20042;-75
2022/03/17 01:06:06;;;;;;;23.00;19.33;;;;;;;9.77;76.90;101767.81;6530928;22;20010;-78
2022/03/17 01:08:38;;;;;;;24.03;19.30;;;;;;;9.78;77.02;101764.34;6531217;22;20056;-77
2022/03/17 01:11:11;;;;;;;20.65;18.48;;;;;;;9.75;77.37;101765.19;6530695;22;20004;-79
2022/03/17 01:13:43;;;;;;;22.20;18.63;;;;;;;9.77;77.31;101765.22;6531203;22;20007;-76
2022/03/17 01:16:15;;;;;;;21.93;19.50;;;;;;;9.83;76.94;101773.94;6530588;22;20007;-74
2022/03/17 01:18:46;;;;;;;21.10;18.00;;;;;;;9.86;77.12;101766.13;6529688;22;20016;-76
2022/03/17 01:21:17;;;;;;;24.17;19.63;;;;;;;9.90;77.32;101764.44;6530387;22;20071;-78
2022/03/17 01:23:50;;;;;;;24.10;18.97;;;;;;;9.90;77.17;101756.63;6530703;22;20082;-75
2022/03/17 01:26:21;;;;;;;26.08;20.50;;;;;;;9.92;77.21;101759.22;6530511;22;20054;-73
2022/03/17 01:28:55;;;;;;;27.40;19.63;;;;;;;9.93;77.53;101754.00;6530837;22;20004;-74
2022/03/17 01:31:27;;;;;;;25.40;18.95;;;;;;;9.96;77.61;101764.44;6529948;22;20367;-75
2022/03/17 01:33:58;;;;;;;28.70;19.10;;;;;;;9.99;77.56;101766.22;6530314;22;20072;-74
2022/03/17 01:36:30;;;;;;;23.85;19.42;;;;;;;10.02;77.57;101761.03;6529903;22;20019;-74
2022/03/17 01:39:02;;;;;;;22.42;19.85;;;;;;;10.03;77.32;101755.81;6529297;22;20460;-74
2022/03/17 01:41:34;;;;;;;23.53;19.17;;;;;;;10.04;77.62;101754.94;6530126;22;20008;-72
2022/03/17 01:44:06;;;;;;;26.73;19.53;;;;;;;10.03;77.46;101755.81;6529432;22;20439;-74
2022/03/17 01:49:27;;;;;;;22.05;18.85;;;;;;;10.03;77.81;101765.38;6528718;22;20020;-73
2022/03/17 01:51:59;;;;;;;22.63;19.93;;;;;;;10.04;78.09;101770.56;6530238;22;20004;-75
2022/03/17 01:54:30;;;;;;;22.30;19.90;;;;;;;10.05;78.24;101768.84;6529873;22;20007;-71
2022/03/17 01:57:03;;;;;;;25.33;19.17;;;;;;;10.04;78.21;101767.09;6530272;22;20019;-76
2022/03/17 01:59:37;;;;;;;23.88;20.55;;;;;;;10.07;78.35;101761.91;6529828;22;20010;-77
2022/03/17 02:02:12;;;;;;;25.23;19.33;;;;;;;10.05;78.24;101763.66;6530215;22;20004;-74
2022/03/17 02:04:47;;;;;;;25.05;20.23;;;;;;;10.02;78.60;101761.03;6529681;22;20325;-75
2022/03/17 02:07:19;;;;;;;24.85;19.10;;;;;;;10.00;78.88;101761.00;6530330;22;20008;-73
2022/03/17 02:09:51;;;;;;;25.08;19.15;;;;;;;9.99;79.22;101758.41;6529888;22;20004;-73
2022/03/17 02:15:12;;;;;;;24.13;19.73;;;;;;;10.02;79.24;101771.44;6529863;22;20167;-72
2022/03/17 02:17:43;;;;;;;22.60;20.20;;;;;;;10.00;79.51;101765.38;6529877;22;20007;-72
2022/03/17 02:20:15;;;;;;;21.60;19.13;;;;;;;10.00;79.70;101773.19;6529670;22;20012;-74
2022/03/17 02:22:49;;;;;;;24.73;20.80;;;;;;;9.99;79.80;101771.44;6529365;22;20071;-74
2022/03/17 02:25:35;;;;;;;24.95;20.02;;;;;;;10.00;80.22;101775.78;6528442;22;20111;-77
2022/03/17 02:28:08;;;;;;;24.67;19.90;;;;;;;10.01;80.45;101780.09;6529796;22;20014;-74
2022/03/17 02:30:40;;;;;;;26.40;20.77;;;;;;;10.02;80.35;101784.47;6529944;22;20053;-74
2022/03/17 02:33:16;;;;;;;26.77;20.90;;;;;;;10.02;80.63;101787.94;6529224;22;20003;-74
2022/03/17 02:35:53;;;;;;;26.55;20.60;;;;;;;10.02;80.84;101790.53;6529849;22;20192;-73
2022/03/17 02:38:26;;;;;;;24.85;19.55;;;;;;;10.03;81.22;101792.28;6529342;22;20075;-75
2022/03/17 02:40:57;;;;;;;23.15;19.63;;;;;;;10.04;81.47;101793.16;6528631;22;20521;-73
2022/03/17 02:43:28;;;;;;;27.13;21.77;;;;;;;10.08;81.25;101802.75;6529504;22;20131;-76
2022/03/17 02:46:00;;;;;;;28.63;21.90;;;;;;;10.08;81.88;101801.84;6529705;22;20008;-73
2022/03/17 02:48:31;;;;;;;29.57;22.13;;;;;;;10.13;82.14;101805.38;6529661;22;20075;-78
2022/03/17 02:51:02;;;;;;;31.37;22.87;;;;;;;10.19;83.30;101811.50;6529740;22;20004;-73
2022/03/17 02:53:34;;;;;;;30.33;24.50;;;;;;;10.22;83.79;101818.44;6530843;22;20006;-73
2022/03/17 02:56:05;;;;;;;31.73;24.40;;;;;;;10.26;85.58;101814.13;6530324;22;20011;-75
2022/03/17 02:58:37;;;;;;;35.17;27.23;;;;;;;10.32;87.71;101832.38;6530032;22;20374;-74
2022/03/17 03:01:08;;;;;;;30.98;27.17;;;;;;;10.37;89.40;101842.00;6530335;22;20744;-76
2022/03/17 03:03:40;;;;;;;33.97;25.87;;;;;;;10.38;90.45;101837.66;6530010;22;20007;-73
2022/03/17 03:06:14;;;;;;;27.47;24.47;;;;;;;10.31;90.86;101847.16;6529745;22;20004;-81
2022/03/17 03:08:47;;;;;;;30.88;23.98;;;;;;;10.21;92.22;101856.66;6529552;22;20431;-74
2022/03/17 03:11:18;;;;;;;28.17;22.42;;;;;;;10.10;94.03;101860.94;6530447;22;20068;-73
2022/03/17 03:13:49;;;;;;;24.33;21.10;;;;;;;10.01;94.80;101861.75;6528120;22;20008;-76
2022/03/17 03:16:21;;;;;;;26.40;19.90;;;;;;;9.82;97.00;101883.28;6531947;22;20011;-76
2022/03/17 03:18:52;;;;;;;25.27;20.43;;;;;;;9.62;99.13;101889.19;6533390;22;20100;-74
2022/03/17 03:21:23;;;;;;;23.20;20.80;;;;;;;9.42;100.00;101895.97;6535526;22;20007;-76
2022/03/17 03:23:55;;;;;;;22.00;19.67;;;;;;;9.24;100.00;101904.44;6534645;22;20003;-74
2022/03/17 03:26:26;;;;;;;23.07;20.67;;;;;;;9.16;100.00;101904.38;6533386;22;20011;-77
2022/03/17 03:28:57;;;;;;;21.13;18.90;;;;;;;9.09;100.00;101907.75;6535963;22;20003;-73
2022/03/17 03:31:29;;;;;;;23.07;20.63;;;;;;;9.03;100.00;101905.97;6538328;22;20587;-75
2022/03/17 03:34:00;;;;;;;23.00;20.70;;;;;;;8.93;100.00;101922.31;6537619;22;20446;-74
2022/03/17 03:39:22;;;;;;;23.42;20.98;;;;;;;8.75;100.00;101934.22;6538328;22;20012;-72
2022/03/17 03:41:53;;;;;;;23.33;21.13;;;;;;;8.67;100.00;101934.97;6535698;22;20007;-75
2022/03/17 03:44:24;;;;;;;23.13;20.73;;;;;;;8.65;100.00;101941.88;6537029;22;20004;-79
2022/03/17 03:46:56;;;;;;;21.93;19.60;;;;;;;8.63;100.00;101948.78;6533298;22;20038;-75
2022/03/17 03:49:27;;;;;;;23.07;20.97;;;;;;;8.56;100.00;101958.22;6536781;22;20003;-74
2022/03/17 03:51:59;;;;;;;22.83;20.43;;;;;;;8.56;100.00;101971.19;6537812;22;20384;-74
2022/03/17 03:54:30;;;;;;;24.63;22.20;;;;;;;8.53;100.00;101982.44;6540241;22;20007;-74
2022/03/17 03:57:02;;;;;;;23.30;20.83;;;;;;;8.49;100.00;101997.97;6537806;22;20023;-76
2022/03/17 03:59:33;;;;;;;23.47;20.87;;;;;;;8.44;100.00;101994.44;6535702;22;20039;-73
2022/03/17 04:03:09;;;;;;;;;;;;;;;;;;;;;
2022/03/17 04:13:28;;;;;;;30.42;24.90;;;;;;;8.12;100.00;102029.38;6340910;23;20010;-84
2022/03/17 04:16:27;;;;;;;34.55;26.20;;;;;;;7.99;100.00;102049.06;6341479;23;20024;-81
2022/03/17 04:18:58;;;;;;;38.80;27.33;;;;;;;7.91;100.00;102058.44;6340284;23;20309;-75
2022/03/17 04:21:31;;;;;;;31.80;26.20;;;;;;;7.83;100.00;102067.78;6340176;23;20096;-74
2022/03/17 04:31:16;;;;;;;30.35;23.42;;;;;;;7.62;100.00;102097.66;6529841;22;20015;-77
2022/03/17 04:38:49;;;;;;;26.98;21.45;;;;;;;7.45;100.00;102135.34;6191120;24;20020;-74
2022/03/17 04:58:42;;;;;;;25.10;15.45;;;;;;;7.37;97.31;102175.81;6538677;22;20030;-75
2022/03/17 05:01:14;;;;;;;29.67;15.07;;;;;;;7.39;96.48;102180.22;6502146;22;20015;-75
2022/03/17 05:03:46;;;;;;;22.63;15.93;;;;;;;7.36;96.61;102190.53;6529685;22;20012;-74
2022/03/17 05:06:17;;;;;;;25.47;15.57;;;;;;;7.35;95.85;102198.25;6528956;22;20031;-77
2022/03/17 05:08:49;;;;;;;29.10;16.53;;;;;;;7.35;95.30;102198.25;6529110;22;20011;-77
2022/03/17 05:11:20;;;;;;;27.33;17.03;;;;;;;7.32;95.37;102216.34;6529645;22;20004;-74
2022/03/17 05:13:52;;;;;;;23.20;16.70;;;;;;;7.28;94.39;102228.38;6528704;22;20004;-77
2022/03/17 05:16:23;;;;;;;22.43;16.13;;;;;;;7.27;93.72;102237.84;6529160;22;20004;-76
2022/03/17 05:18:55;;;;;;;27.90;15.50;;;;;;;7.26;93.29;102248.19;6502164;22;20562;-74
2022/03/17 05:21:26;;;;;;;21.33;13.40;;;;;;;7.16;92.10;102254.88;6529392;22;20061;-75
2022/03/17 05:23:57;;;;;;;24.27;11.67;;;;;;;7.10;91.60;102268.56;6528970;22;20008;-77
2022/03/17 05:26:29;;;;;;;22.60;9.77;;;;;;;7.06;91.11;102268.44;6528481;22;20007;-76
2022/03/17 05:29:00;;;;;;;16.27;8.20;;;;;;;7.06;90.98;102271.03;6529542;22;20494;-76
2022/03/17 05:31:31;;;;;;;27.77;10.47;;;;;;;7.02;90.79;102277.88;6529077;22;20057;-76
2022/03/17 05:34:04;;;;;;;21.03;7.83;;;;;;;7.08;90.80;102282.31;6528964;22;20062;-75
2022/03/17 05:36:35;;;;;;;20.83;7.85;;;;;;;7.03;90.08;102289.13;6528534;22;20065;-76
2022/03/17 05:39:07;;;;;;;18.23;7.50;;;;;;;7.04;90.39;102291.75;6529406;22;20015;-75
2022/03/17 05:41:38;;;;;;;15.30;8.10;;;;;;;7.04;89.55;102296.06;6528647;22;20007;-76
2022/03/17 05:44:09;;;;;;;14.20;6.83;;;;;;;7.03;89.08;102304.66;6528825;22;20004;-76
2022/03/17 05:46:40;;;;;;;14.67;6.37;;;;;;;7.01;88.89;102321.91;6529885;22;20064;-81
2022/03/17 12:31:14;;;;;;;;;;;;;;;;;;;;;
2022/03/17 13:37:21;;;;;;;;;;;;;;;;;;;;;
2022/03/17 13:47:07;;;;;;;7.20;2.78;;;;;;;14.89;40.09;103026.91;6249428;23;20015;-75
2022/03/17 13:50:40;;;;;;;10.93;2.80;;;;;;;14.77;39.88;103032.97;6219291;24;20123;-77
2022/03/17 14:00:47;;;;;;;10.18;3.38;;;;;;;14.46;38.61;103042.38;6127524;24;20021;-77
2022/03/17 14:04:00;;;;;;;9.00;4.00;;;;;;;13.99;39.59;103046.38;6113624;24;20049;-76
2022/03/17 14:11:06;;;;;;;10.65;5.00;;;;;;;14.47;39.92;103043.22;6055980;24;20102;-76
2022/03/17 14:14:50;;;;;;;;;;;;;;;;;;;;;
2022/03/17 15:26:00;;;;;;;6.90;2.85;;;;;;;14.95;36.85;103103.06;6511302;22;1374267;-73
2022/03/17 15:31:22;;;;;;;7.07;2.08;;;;;;;14.76;36.12;103111.72;6572785;22;20072;-73
2022/03/17 15:33:54;;;;;;;10.90;3.03;;;;;;;14.56;36.41;103117.66;6569855;22;20337;-74
2022/03/17 15:36:25;;;;;;;5.20;2.03;;;;;;;15.38;36.31;103112.09;6570666;22;20007;-75
2022/03/17 15:38:57;;;;;;;10.30;3.00;;;;;;;15.08;35.87;103113.66;6571252;22;20003;-74
2022/03/17 15:41:31;;;;;;;7.90;2.53;;;;;;;15.23;35.89;103111.13;6569801;22;20216;-73
2022/03/17 15:44:03;;;;;;;7.22;2.15;;;;;;;15.48;35.64;103117.34;6571844;22;20093;-74
2022/03/17 15:46:35;;;;;;;;;;;;;;;16.12;35.96;103121.09;6572952;22;20055;-76
2022/03/17 15:49:06;;;;;;;8.23;2.38;;;;;;;15.30;35.38;103123.41;6569584;22;19910;-73
2022/03/17 15:51:37;;;;;;;10.60;5.77;;;;;;;16.13;34.21;103124.56;6570817;22;20332;-75
2022/03/17 15:54:09;;;;;;;6.03;2.63;;;;;;;15.89;34.24;103123.69;6570722;22;20408;-76
2022/03/17 15:56:41;;;;;;;8.17;2.50;;;;;;;15.67;34.26;103139.34;6567322;22;20026;-76
2022/03/17 15:59:12;;;;;;;5.97;2.38;;;;;;;15.23;35.60;103140.03;6568948;22;20007;-75
2022/03/17 16:01:43;;;;;;;5.67;2.10;;;;;;;15.05;36.11;103142.53;6568917;22;20007;-78
2022/03/17 16:04:15;;;;;;;10.67;2.70;;;;;;;15.40;36.66;103140.09;6568211;22;20003;-77
2022/03/17 16:06:47;;;;;;;3.63;2.00;;;;;;;15.26;35.09;103137.44;6570135;22;20010;-76
2022/03/17 16:14:40;;;;;;;5.85;2.05;;;;;;;15.20;35.17;103142.66;6568339;22;20023;-74
2022/03/17 16:17:12;;;;;;;5.23;2.20;;;;;;;15.25;35.40;103154.06;6567671;22;20026;-75
2022/03/17 16:19:44;;;;;;;6.73;2.10;;;;;;;16.25;35.68;103156.19;6569889;22;20011;-76
2022/03/17 16:22:16;;;;;;;;;;;;;;;17.53;34.43;103156.03;6565098;22;20007;-75
2022/03/17 16:24:47;;;;;;;6.93;2.15;;;;;;;18.54;30.93;103153.69;6560628;22;19930;-74
2022/03/17 16:27:19;;;;;;;8.27;2.63;;;;;;;20.39;29.03;103152.31;6561684;22;20000;-75
2022/03/17 16:29:52;;;;;;;6.03;2.07;;;;;;;21.30;27.50;103169.28;6562083;22;20068;-76
2022/03/17 16:32:23;;;;;;;11.43;9.23;;;;;;;21.87;25.96;103163.69;6560332;22;20006;-74
2022/03/17 16:34:54;;;;;;;5.53;1.93;;;;;;;21.39;25.13;103168.19;6562965;22;20425;-77
2022/03/17 16:37:26;;;;;;;5.67;2.33;;;;;;;21.15;25.70;103180.19;6562428;22;20011;-75
2022/03/17 16:39:57;;;;;;;5.77;1.87;;;;;;;21.33;24.67;103189.53;6561030;22;20042;-76
2022/03/17 16:42:29;;;;;;;7.37;4.07;;;;;;;21.10;25.77;103182.91;6561835;22;20003;-74
2022/03/17 16:45:00;;;;;;;7.40;2.23;;;;;;;21.67;24.63;103189.78;6562629;22;20029;-77
2022/03/17 16:47:31;;;;;;;7.83;1.60;;;;;;;21.66;23.94;103189.81;6562273;22;20007;-74
2022/03/17 16:50:04;;;;;;;5.10;1.80;;;;;;;21.62;23.06;103189.00;6562001;22;20007;-76
2022/03/17 16:52:36;;;;;;;5.50;1.80;;;;;;;20.85;24.40;103197.53;6562688;22;20060;-75
2022/03/17 16:55:07;;;;;;;5.43;1.90;;;;;;;20.75;24.38;103205.66;6562979;22;20325;-76
2022/03/17 16:57:39;;;;;;;5.43;2.10;;;;;;;20.22;24.41;103204.69;6562960;22;20082;-76
2022/03/17 17:00:11;;;;;;;4.33;1.63;;;;;;;18.97;25.14;103210.59;6562906;22;20015;-81
2022/03/17 17:02:43;;;;;;;8.23;2.00;;;;;;;17.14;27.74;103216.75;6563595;22;20011;-77
2022/03/17 17:05:14;;;;;;;4.18;1.60;;;;;;;15.82;29.40;103221.84;6564797;22;20324;-76
2022/03/17 17:07:45;;;;;;;4.23;2.20;;;;;;;14.99;30.25;103226.53;6563863;22;20026;-76
2022/03/17 17:10:18;;;;;;;5.37;1.73;;;;;;;14.38;31.90;103225.13;6562345;22;20049;-76
2022/03/17 17:12:49;;;;;;;7.32;1.88;;;;;;;13.49;33.34;103245.84;6562444;22;20013;-76
2022/03/17 17:15:23;;;;;;;6.83;2.63;;;;;;;13.44;33.63;103245.81;6561978;22;20497;-75
2022/03/17 17:17:54;;;;;;;5.32;1.70;;;;;;;12.72;35.57;103244.59;6562647;22;20100;-76
2022/03/17 17:20:26;;;;;;;5.80;1.93;;;;;;;12.51;35.83;103239.84;6561612;22;20025;-75
2022/03/17 17:31:27;;;;;;;11.13;2.65;;;;;;;11.44;39.01;103271.56;6561277;22;20332;-76
2022/03/17 17:33:58;;;;;;;4.83;2.20;;;;;;;11.46;39.43;103269.00;6533002;22;20011;-75
2022/03/17 17:36:29;;;;;;;4.10;1.83;;;;;;;11.38;39.84;103278.38;6531960;22;20007;-77
2022/03/17 17:39:01;;;;;;;4.03;1.83;;;;;;;11.21;40.44;103283.22;6560332;22;20480;-77
2022/03/17 17:41:32;;;;;;;6.73;2.00;;;;;;;11.21;40.80;103289.31;6560686;22;20393;-76
2022/03/17 17:44:05;;;;;;;6.67;1.90;;;;;;;11.12;40.86;103296.91;6560723;22;20003;-77
2022/03/17 17:46:39;;;;;;;8.05;2.17;;;;;;;10.78;42.02;103311.69;6560660;22;20469;-75
2022/03/17 17:49:11;;;;;;;6.13;2.13;;;;;;;10.99;42.62;103297.44;6559992;22;20003;-76
2022/03/17 17:51:42;;;;;;;6.13;1.90;;;;;;;10.94;42.62;103299.94;6560487;22;20011;-74
2022/03/17 17:54:13;;;;;;;5.27;2.50;;;;;;;10.98;42.64;103307.00;6560856;22;20007;-75
2022/03/17 17:56:45;;;;;;;8.20;2.10;;;;;;;10.57;43.14;103315.47;6560818;22;20060;-75
2022/03/17 17:59:16;;;;;;;6.67;2.13;;;;;;;10.69;43.70;103321.84;6560332;22;20086;-75
2022/03/17 18:01:48;;;;;;;6.40;2.17;;;;;;;10.60;43.87;103325.13;6560086;22;20338;-75
2022/03/17 18:04:22;;;;;;;11.50;4.00;;;;;;;10.70;44.01;103323.63;6560280;22;20030;-80
2022/03/17 18:06:56;;;;;;;12.75;2.67;;;;;;;10.44;44.06;103334.22;6560051;22;20560;-77
2022/03/17 18:09:28;;;;;;;7.60;2.80;;;;;;;10.50;44.33;103334.41;6560849;22;20003;-80
2022/03/17 18:11:59;;;;;;;9.68;3.60;;;;;;;10.43;44.60;103340.25;6562212;22;20003;-75
2022/03/17 18:14:31;;;;;;;7.17;2.90;;;;;;;10.33;45.31;103340.84;6533750;22;20340;-74
2022/03/17 18:17:02;;;;;;;8.03;2.87;;;;;;;10.25;45.39;103352.75;6561465;22;20387;-75
2022/03/17 18:19:34;;;;;;;7.93;2.63;;;;;;;10.01;45.96;103345.94;6561964;22;20133;-79
2022/03/17 18:22:05;;;;;;;5.47;2.40;;;;;;;10.08;46.73;103347.91;6561567;22;20008;-80
2022/03/17 18:24:37;;;;;;;7.63;2.97;;;;;;;10.00;46.22;103347.69;6561871;22;20003;-78
2022/03/17 18:27:08;;;;;;;6.57;3.23;;;;;;;10.01;47.88;103351.16;6561427;22;20044;-79
2022/03/17 18:29:40;;;;;;;6.83;2.50;;;;;;;9.87;48.23;103363.78;6560500;22;20435;-78
2022/03/17 18:32:11;;;;;;;9.17;2.70;;;;;;;9.78;48.09;103361.75;6533170;22;20725;-76
2022/03/17 18:34:43;;;;;;;9.33;3.77;;;;;;;9.68;48.53;103363.16;6560796;22;20093;-79
2022/03/17 18:37:15;;;;;;;8.68;3.22;;;;;;;9.44;48.76;103368.47;6560887;22;20451;-76
2022/03/17 18:39:46;;;;;;;10.83;2.53;;;;;;;9.38;49.46;103368.25;6560380;22;20011;-78
2022/03/17 18:42:17;;;;;;;7.77;3.00;;;;;;;9.29;49.92;103370.56;6560769;22;20447;-79
2022/03/17 18:44:49;;;;;;;9.20;2.33;;;;;;;9.16;50.03;103371.84;6560333;22;20417;-76
2022/03/17 18:47:20;;;;;;;7.80;2.10;;;;;;;9.07;49.93;103377.63;6560689;22;20082;-75
2022/03/17 18:49:52;;;;;;;6.00;2.20;;;;;;;9.04;50.29;103384.44;6560251;22;20480;-81
2022/03/17 18:52:24;;;;;;;9.03;3.10;;;;;;;8.99;50.32;103388.59;6560541;22;20417;-75
2022/03/17 18:54:55;;;;;;;9.77;2.87;;;;;;;8.75;51.04;103389.47;6560873;22;20003;-77
2022/03/17 18:57:26;;;;;;;8.63;2.97;;;;;;;8.83;52.37;103393.22;6560888;22;20029;-76
2022/03/17 18:59:58;;;;;;;5.53;2.63;;;;;;;8.73;51.56;103405.00;6560528;22;20006;-82
2022/03/17 19:02:30;;;;;;;11.90;3.13;;;;;;;8.68;51.74;103406.56;6561313;22;20064;-83
2022/03/17 19:05:02;;;;;;;7.13;2.77;;;;;;;8.76;50.67;103412.06;6560719;22;20281;-78
2022/03/17 19:07:34;;;;;;;9.73;4.18;;;;;;;8.61;51.82;103414.06;6560790;22;20084;-79
2022/03/17 19:10:06;;;;;;;13.03;8.03;;;;;;;8.50;50.88;103418.84;6560198;22;20035;-76
2022/03/17 19:12:37;;;;;;;10.43;4.40;;;;;;;8.29;52.60;103431.88;6561366;22;20039;-74
2022/03/17 19:15:09;;;;;;;15.63;4.73;;;;;;;8.29;53.06;103426.69;6560418;22;20201;-81
2022/03/17 19:17:40;;;;;;;9.57;3.97;;;;;;;8.33;53.21;103437.25;6556423;22;20011;-75
2022/03/17 19:20:13;;;;;;;11.53;4.03;;;;;;;8.21;52.83;103440.28;6559579;22;20447;-74
2022/03/17 19:22:45;;;;;;;8.32;4.38;;;;;;;8.11;53.86;103440.72;6559896;22;20425;-80
2022/03/17 19:25:16;;;;;;;16.27;4.88;;;;;;;7.98;54.26;103446.25;6558050;22;19999;-77
2022/03/17 19:27:48;;;;;;;11.37;4.67;;;;;;;7.95;54.55;103447.03;6559600;22;20324;-73
2022/03/17 19:30:19;;;;;;;13.97;7.47;;;;;;;7.82;54.76;103457.72;6559891;22;20007;-76
2022/03/17 19:32:51;;;;;;;39.63;23.57;;;;;;;7.72;55.31;103459.03;6558373;22;20027;-74
2022/03/17 19:35:23;;;;;;;24.08;13.00;;;;;;;7.73;54.54;103462.50;6559008;22;20015;-76
2022/03/17 19:37:54;;;;;;;12.83;6.97;;;;;;;7.62;55.46;103469.88;6559639;22;20417;-77
2022/03/17 19:40:25;;;;;;;8.20;4.03;;;;;;;7.66;54.68;103471.75;6558301;22;20007;-80
2022/03/17 19:42:56;;;;;;;11.93;5.00;;;;;;;7.56;55.30;103482.59;6559243;22;20034;-80
2022/03/17 19:45:28;;;;;;;10.80;4.57;;;;;;;7.37;56.01;103486.09;6532122;22;20007;-79
2022/03/17 19:47:59;;;;;;;7.57;3.90;;;;;;;7.27;56.67;103485.66;6557886;22;20341;-74
2022/03/17 19:53:27;;;;;;;10.13;3.40;;;;;;;7.22;56.54;103494.09;6558007;22;20484;-77
2022/03/17 19:56:03;;;;;;;10.40;3.45;;;;;;;7.19;56.68;103494.81;6566851;22;20171;-75
2022/03/17 19:58:36;;;;;;;8.13;3.50;;;;;;;7.28;56.20;103509.94;6564192;22;20359;-80
2022/03/17 20:01:09;;;;;;;8.18;3.35;;;;;;;7.16;57.07;103512.84;6560795;22;20003;-75
2022/03/17 20:03:41;;;;;;;11.07;3.80;;;;;;;7.22;56.94;103514.84;6561554;22;20082;-76
2022/03/17 20:06:13;;;;;;;7.60;3.08;;;;;;;7.14;57.54;103521.38;6561843;22;20007;-75
2022/03/17 20:08:44;;;;;;;10.33;3.47;;;;;;;6.98;57.80;103510.31;6560896;22;20007;-81
2022/03/17 20:14:05;;;;;;;7.95;2.92;;;;;;;6.90;58.30;103522.91;6561353;22;20086;-75
2022/03/17 20:16:37;;;;;;;12.50;3.63;;;;;;;6.91;58.23;103521.22;6560125;22;20091;-75
2022/03/17 20:19:08;;;;;;;6.50;3.30;;;;;;;6.70;59.50;103526.31;6561285;22;20421;-76
2022/03/17 20:21:40;;;;;;;12.23;3.67;;;;;;;6.65;59.70;103530.34;6561834;22;20010;-77
2022/03/17 20:24:11;;;;;;;8.20;3.53;;;;;;;6.58;59.79;103539.53;6532662;22;20403;-76
2022/03/17 20:26:42;;;;;;;12.10;3.90;;;;;;;6.52;59.70;103539.25;6561418;22;20403;-84
2022/03/17 20:29:14;;;;;;;14.17;5.57;;;;;;;6.41;59.93;103543.94;6561908;22;20033;-77
2022/03/17 20:31:45;;;;;;;12.53;5.73;;;;;;;6.42;60.26;103542.22;6560285;22;20003;-77
2022/03/17 20:34:17;;;;;;;12.67;6.90;;;;;;;6.37;60.27;103540.28;6560926;22;20003;-75
2022/03/17 20:36:48;;;;;;;13.73;6.00;;;;;;;6.14;60.01;103546.91;6561398;22;20026;-78
2022/03/17 20:39:19;;;;;;;12.27;6.33;;;;;;;6.15;61.19;103564.25;6560387;22;20007;-82
2022/03/17 20:41:51;;;;;;;14.70;7.23;;;;;;;6.13;60.28;103560.66;6561989;22;20011;-80
2022/03/17 20:44:23;;;;;;;16.57;7.03;;;;;;;5.97;61.24;103563.31;6561552;22;20069;-83
2022/03/17 20:46:55;;;;;;;19.87;7.63;;;;;;;6.08;61.35;103569.03;6560135;22;19999;-78
2022/03/17 20:49:27;;;;;;;12.30;6.45;;;;;;;6.13;60.65;103573.63;6561371;22;20011;-77
2022/03/17 20:52:00;;;;;;;17.27;7.47;;;;;;;6.10;60.63;103575.19;6561306;22;20011;-83
2022/03/17 20:54:31;;;;;;;;;;;;;;;6.17;59.03;103572.09;6560179;22;20814;-75
2022/03/17 20:57:06;;;;;;;13.95;6.70;;;;;;;5.98;60.60;103580.63;6560437;22;20031;-73
2022/03/17 20:59:37;;;;;;;15.18;7.05;;;;;;;5.82;62.02;103578.91;6560733;22;20010;-75
2022/03/17 21:02:09;;;;;;;15.63;6.70;;;;;;;5.84;62.34;103583.38;6534822;22;19999;-75
2022/03/17 21:04:40;;;;;;;13.57;7.93;;;;;;;5.80;62.54;103580.53;6562009;22;20018;-82
2022/03/17 21:07:12;;;;;;;14.77;7.17;;;;;;;5.83;62.52;103588.47;6561728;22;20082;-78
2022/03/17 21:09:43;;;;;;;15.60;7.77;;;;;;;5.65;62.93;103593.56;6562721;22;20000;-73
2022/03/17 21:12:16;;;;;;;21.47;9.70;;;;;;;5.62;63.69;103593.41;6562190;22;20007;-73
2022/03/17 21:14:47;;;;;;;14.88;6.65;;;;;;;5.59;63.52;103596.72;6562165;22;20011;-74
2022/03/17 21:17:19;;;;;;;15.40;7.63;;;;;;;5.53;63.79;103601.56;6562646;22;20091;-77
2022/03/17 21:19:50;;;;;;;16.20;8.70;;;;;;;5.36;64.39;103607.53;6562616;22;20007;-76
2022/03/17 21:22:21;;;;;;;19.17;8.83;;;;;;;5.14;64.48;103615.84;6562262;22;20009;-75
2022/03/17 21:24:53;;;;;;;16.97;8.07;;;;;;;5.33;64.36;103617.69;6562082;22;20007;-76
2022/03/17 21:27:25;;;;;;;23.15;8.70;;;;;;;5.11;65.10;103614.84;6560699;22;20003;-74
2022/03/17 21:29:57;;;;;;;20.83;10.63;;;;;;;5.05;65.65;103621.38;6561552;22;20090;-76
2022/03/17 21:32:28;;;;;;;21.88;9.07;;;;;;;5.03;66.00;103616.09;6562025;22;20010;-77
2022/03/17 21:35:00;;;;;;;21.10;9.30;;;;;;;5.09;66.03;103624.22;6561722;22;20010;-78
2022/03/17 21:37:32;;;;;;;18.13;9.40;;;;;;;5.03;65.78;103631.63;6562196;22;20377;-74
2022/03/17 21:40:04;;;;;;;19.00;9.23;;;;;;;5.08;66.03;103637.94;6561604;22;20011;-74
2022/03/17 21:42:36;;;;;;;19.85;9.70;;;;;;;5.06;66.14;103634.38;6561505;22;20009;-74
2022/03/17 21:45:08;;;;;;;17.30;9.07;;;;;;;4.96;67.04;103637.25;6561960;22;20173;-75
2022/03/17 21:47:39;;;;;;;19.08;9.25;;;;;;;4.96;66.52;103639.84;6561669;22;20444;-71
2022/03/17 21:50:12;;;;;;;17.73;9.87;;;;;;;4.94;66.82;103641.44;6561268;22;20007;-72
2022/03/17 21:52:43;;;;;;;16.88;10.70;;;;;;;4.84;66.97;103642.59;6562180;22;20003;-73
2022/03/17 21:55:15;;;;;;;17.87;9.90;;;;;;;4.83;67.81;103640.84;6561803;22;20007;-75
2022/03/17 21:57:46;;;;;;;18.30;8.70;;;;;;;4.77;66.91;103642.19;6561444;22;20003;-73
2022/03/17 22:00:17;;;;;;;18.53;9.80;;;;;;;4.68;67.78;103650.28;6561436;22;20010;-79
2022/03/17 22:02:49;;;;;;;17.63;10.97;;;;;;;4.64;67.89;103648.34;6561807;22;20003;-75
2022/03/17 22:05:20;;;;;;;23.37;12.33;;;;;;;4.49;67.34;103658.66;6561013;22;20038;-72
2022/03/17 22:07:53;;;;;;;22.97;11.17;;;;;;;4.48;68.44;103657.78;6561998;22;20901;-74
2022/03/17 22:10:24;;;;;;;22.30;10.98;;;;;;;4.31;68.80;103661.94;6560935;22;20343;-74
2022/03/17 22:12:56;;;;;;;21.90;13.87;;;;;;;4.33;68.82;103654.28;6561456;22;20007;-79